createdAt,value
2023-11-04T00:00:41.915Z,6.18
2023-11-04T00:04:10.611Z,6.11
2023-11-04T00:07:32.319Z,6.09
2023-11-04T00:10:53.579Z,6.08
2023-11-04T00:14:05.375Z,6.13
2023-11-04T00:17:15.251Z,5.89
2023-11-04T00:20:39.286Z,5.92
2023-11-04T00:23:55.666Z,5.77
2023-11-04T00:27:08.875Z,5.76
2023-11-04T00:30:34.638Z,5.61
2023-11-04T00:34:04.933Z,5.48
2023-11-04T00:37:23.665Z,5.26
2023-11-04T00:40:36.194Z,5.33
2023-11-04T00:43:53.300Z,5.19
2023-11-04T00:47:17.280Z,5.11
2023-11-04T00:50:40.926Z,5.12
2023-11-04T00:53:50.891Z,5.07
2023-11-04T00:56:57.381Z,4.92
2023-11-04T01:00:10.834Z,4.84
2023-11-04T01:03:22.824Z,4.81
2023-11-04T01:06:45.236Z,4.80
2023-11-04T01:09:53.879Z,4.83
2023-11-04T01:13:08.490Z,4.88
2023-11-04T01:16:18.436Z,4.89
2023-11-04T01:19:30.792Z,4.82
2023-11-04T01:22:51.224Z,4.73
2023-11-04T01:26:02.770Z,4.68
2023-11-04T01:29:11.725Z,4.84
2023-11-04T01:32:32.446Z,4.84
2023-11-04T01:36:09.146Z,5.02
2023-11-04T01:39:12.882Z,4.97
2023-11-04T01:42:21.912Z,5.19
2023-11-04T01:45:26.098Z,5.25
2023-11-04T01:48:34.586Z,5.23
2023-11-04T01:51:40.297Z,5.24
2023-11-04T01:54:47.305Z,5.35
2023-11-04T01:57:49.613Z,5.27
2023-11-04T02:00:54.175Z,5.30
2023-11-04T02:03:58.395Z,5.39
2023-11-04T02:07:00.517Z,5.35
2023-11-04T02:10:06.809Z,5.44
2023-11-04T02:13:11.184Z,5.40
2023-11-04T02:16:15.468Z,5.35
2023-11-04T02:19:17.662Z,5.28
2023-11-04T02:22:20.385Z,5.25
2023-11-04T02:25:23.251Z,5.20
2023-11-04T02:28:25.545Z,5.07
2023-11-04T02:31:31.823Z,5.06
2023-11-04T02:34:36.115Z,5.04
2023-11-04T02:37:40.265Z,5.12
2023-11-04T02:40:48.244Z,5.18
2023-11-04T02:43:52.820Z,5.07
2023-11-04T02:46:59.724Z,5.14
2023-11-04T02:50:04.288Z,5.26
2023-11-04T02:53:08.862Z,5.38
2023-11-04T02:56:11.001Z,5.36
2023-11-04T02:59:13.034Z,5.43
2023-11-04T03:02:15.747Z,5.35
2023-11-04T03:05:27.846Z,5.44
2023-11-04T03:08:37.143Z,5.51
2023-11-04T03:11:40.675Z,5.70
2023-11-04T03:14:47.290Z,5.74
2023-11-04T03:17:51.906Z,5.83
2023-11-04T03:20:56.626Z,5.85
2023-11-04T03:23:59.324Z,5.90
2023-11-04T03:27:05.750Z,5.82
2023-11-04T03:30:09.527Z,5.86
2023-11-04T03:33:38.446Z,6.06
2023-11-04T03:36:55.523Z,6.02
2023-11-04T03:40:00.054Z,6.09
2023-11-04T03:43:02.332Z,6.17
2023-11-04T03:46:05.996Z,6.15
2023-11-04T03:49:08.333Z,6.09
2023-11-04T03:52:15.439Z,6.14
2023-11-04T03:55:23.128Z,6.00
2023-11-04T03:58:27.087Z,5.93
2023-11-04T04:01:29.225Z,5.93
2023-11-04T04:04:37.789Z,5.88
2023-11-04T04:07:45.526Z,5.79
2023-11-04T04:10:47.801Z,5.64
2023-11-04T04:13:51.838Z,5.66
2023-11-04T04:16:58.285Z,5.52
2023-11-04T04:20:04.481Z,5.61
2023-11-04T04:23:12.558Z,5.43
2023-11-04T04:26:25.136Z,5.55
2023-11-04T04:29:47.570Z,5.59
2023-11-04T04:32:51.895Z,5.41
2023-11-04T04:35:59.275Z,5.58
2023-11-04T04:39:01.530Z,5.30
2023-11-04T04:42:07.673Z,5.37
2023-11-04T04:45:13.144Z,5.31
2023-11-04T04:48:15.527Z,5.35
2023-11-04T04:51:20.276Z,5.32
2023-11-04T04:54:30.939Z,5.29
2023-11-04T04:57:43.150Z,5.21
2023-11-04T05:00:45.452Z,5.28
2023-11-04T05:03:52.890Z,5.34
2023-11-04T05:06:55.270Z,5.25
2023-11-04T05:10:13.955Z,5.13
2023-11-04T05:14:16.353Z,5.23
2023-11-04T05:17:33.801Z,5.00
2023-11-04T05:20:36.041Z,5.02
2023-11-04T05:23:41.184Z,5.05
2023-11-04T05:26:53.207Z,4.95
2023-11-04T05:29:55.359Z,4.83
2023-11-04T05:33:02.166Z,4.99
2023-11-04T05:36:07.413Z,5.05
2023-11-04T05:39:17.879Z,5.08
2023-11-04T05:42:21.938Z,5.24
2023-11-04T05:45:28.719Z,5.41
2023-11-04T05:48:40.288Z,5.43
2023-11-04T05:51:50.721Z,5.53
2023-11-04T05:54:53.526Z,5.41
2023-11-04T05:58:00.153Z,5.57
2023-11-04T06:01:09.919Z,5.49
2023-11-04T06:04:25.516Z,5.60
2023-11-04T06:07:27.956Z,5.81
2023-11-04T06:10:32.625Z,5.78
2023-11-04T06:13:36.051Z,5.90
2023-11-04T06:16:39.929Z,5.96
2023-11-04T06:19:42.160Z,5.95
2023-11-04T06:22:44.242Z,6.03
2023-11-04T06:25:46.218Z,6.21
2023-11-04T06:28:48.273Z,6.34
2023-11-04T06:31:50.388Z,6.70
2023-11-04T06:34:52.493Z,7.21
2023-11-04T06:37:54.478Z,7.65
2023-11-04T06:40:56.473Z,7.97
2023-11-04T06:44:01.305Z,8.27
2023-11-04T06:47:03.813Z,8.72
2023-11-04T06:50:06.649Z,9.39
2023-11-04T06:53:08.676Z,10.15
2023-11-04T06:56:10.672Z,9.72
2023-11-04T06:59:12.822Z,10.44
2023-11-04T07:02:14.904Z,11.44
2023-11-04T07:05:17.413Z,11.66
2023-11-04T07:08:19.494Z,11.58
2023-11-04T07:11:23.796Z,11.42
2023-11-04T07:14:28.320Z,11.18
2023-11-04T07:17:33.055Z,11.18
2023-11-04T07:20:39.786Z,11.73
2023-11-04T07:23:42.799Z,11.88
2023-11-04T07:26:45.467Z,12.58
2023-11-04T07:29:47.698Z,13.50
2023-11-04T07:32:49.975Z,14.21
2023-11-04T07:35:52.220Z,14.02
2023-11-04T07:38:54.424Z,14.83
2023-11-04T07:41:56.560Z,15.13
2023-11-04T07:44:58.846Z,15.45
2023-11-04T07:48:04.579Z,16.09
2023-11-04T07:51:06.880Z,16.11
2023-11-04T07:54:11.113Z,16.22
2023-11-04T07:57:13.242Z,16.75
2023-11-04T08:00:15.750Z,17.42
2023-11-04T08:03:21.571Z,16.02
2023-11-04T08:06:29.620Z,16.11
2023-11-04T08:09:31.747Z,16.53
2023-11-04T08:12:37.898Z,16.53
2023-11-04T08:15:40.230Z,17.90
2023-11-04T08:18:43.176Z,18.12
2023-11-04T08:21:53.266Z,18.24
2023-11-04T08:24:56.032Z,17.91
2023-11-04T08:28:00.447Z,18.50
2023-11-04T08:31:05.114Z,17.31
2023-11-04T08:34:07.228Z,16.89
2023-11-04T08:37:16.536Z,16.48
2023-11-04T08:40:18.694Z,16.73
2023-11-04T08:43:20.878Z,17.27
2023-11-04T08:46:25.872Z,17.84
2023-11-04T08:49:30.426Z,17.43
2023-11-04T08:52:32.884Z,18.28
2023-11-04T08:55:46.097Z,18.49
2023-11-04T08:58:58.663Z,18.58
2023-11-04T09:02:15.647Z,18.44
2023-11-04T09:05:28.331Z,17.77
2023-11-04T09:08:35.897Z,17.68
2023-11-04T09:11:40.179Z,17.52
2023-11-04T09:14:45.482Z,18.06
2023-11-04T09:17:50.902Z,18.15
2023-11-04T09:20:56.066Z,18.40
2023-11-04T09:23:58.420Z,18.06
2023-11-04T09:27:11.772Z,17.33
2023-11-04T09:30:14.353Z,16.50
2023-11-04T09:33:16.680Z,16.71
2023-11-04T09:36:25.400Z,16.11
2023-11-04T09:39:29.987Z,15.60
2023-11-04T09:42:32.237Z,15.47
2023-11-04T09:45:36.363Z,15.65
2023-11-04T09:48:49.791Z,16.04
2023-11-04T09:52:12.656Z,15.59
2023-11-04T09:55:20.405Z,16.07
2023-11-04T09:58:22.459Z,15.22
2023-11-04T10:01:25.063Z,15.61
2023-11-04T10:04:27.883Z,15.25
2023-11-04T10:07:30.865Z,14.62
2023-11-04T10:10:34.270Z,13.80
2023-11-04T10:13:36.447Z,14.11
2023-11-04T10:16:39.017Z,14.26
2023-11-04T10:19:41.036Z,14.31
2023-11-04T10:22:43.337Z,14.28
2023-11-04T10:25:45.314Z,13.92
2023-11-04T10:28:50.491Z,13.72
2023-11-04T10:31:54.653Z,13.49
2023-11-04T10:35:06.515Z,13.35
2023-11-04T10:38:29.770Z,13.36
2023-11-04T10:42:16.825Z,13.23
2023-11-04T10:46:15.697Z,13.16
2023-11-04T10:49:47.111Z,13.14
2023-11-04T10:53:26.911Z,12.62
2023-11-04T10:56:45.856Z,12.68
2023-11-04T11:00:15.146Z,12.52
2023-11-04T11:03:19.186Z,12.42
2023-11-04T11:06:22.995Z,12.31
2023-11-04T11:09:30.537Z,12.41
2023-11-04T11:12:34.365Z,12.56
2023-11-04T11:15:36.944Z,12.78
2023-11-04T11:18:42.299Z,12.86
2023-11-04T11:21:53.676Z,12.64
2023-11-04T11:24:59.073Z,12.20
2023-11-04T11:28:05.967Z,12.01
2023-11-04T11:31:14.755Z,12.06
2023-11-04T11:34:20.142Z,12.19
2023-11-04T11:37:23.041Z,11.95
2023-11-04T11:40:25.193Z,11.59
2023-11-04T11:43:28.131Z,11.57
2023-11-04T11:46:33.641Z,11.36
2023-11-04T11:49:36.172Z,11.27
2023-11-04T11:52:38.501Z,11.42
2023-11-04T11:55:42.349Z,11.75
2023-11-04T11:58:46.361Z,12.13
2023-11-04T12:01:51.054Z,12.14
2023-11-04T12:04:53.413Z,12.35
2023-11-04T12:07:57.171Z,12.13
2023-11-04T12:10:59.277Z,11.99
2023-11-04T12:14:02.518Z,11.53
2023-11-04T12:17:09.848Z,11.48
2023-11-04T12:20:17.105Z,11.02
2023-11-04T12:23:28.898Z,11.22
2023-11-04T12:26:34.197Z,11.49
2023-11-04T12:29:41.525Z,11.49
2023-11-04T12:32:46.716Z,11.84
2023-11-04T12:36:07.471Z,11.80
2023-11-04T12:39:10.350Z,11.64
2023-11-04T12:42:16.075Z,11.56
2023-11-04T12:45:19.005Z,11.55
2023-11-04T12:48:23.880Z,11.41
2023-11-04T12:51:28.279Z,11.47
2023-11-04T12:54:33.990Z,11.32
2023-11-04T12:57:36.264Z,11.28
2023-11-04T13:00:41.972Z,11.21
2023-11-04T13:03:44.368Z,11.19
2023-11-04T13:06:46.936Z,10.98
2023-11-04T13:09:49.160Z,10.83
2023-11-04T13:12:54.044Z,10.76
2023-11-04T13:15:56.357Z,10.60
2023-11-04T13:18:58.622Z,10.66
2023-11-04T13:22:01.272Z,10.45
2023-11-04T13:25:06.574Z,10.54
2023-11-04T13:28:08.573Z,10.54
2023-11-04T13:31:10.714Z,10.21
2023-11-04T13:34:17.501Z,10.37
2023-11-04T13:37:19.807Z,10.24
2023-11-04T13:40:27.597Z,10.37
2023-11-04T13:43:29.791Z,10.34
2023-11-04T13:46:32.202Z,10.39
2023-11-04T13:49:34.341Z,10.53
2023-11-04T13:52:36.623Z,10.72
2023-11-04T13:55:38.696Z,10.72
2023-11-04T13:58:43.505Z,10.73
2023-11-04T14:01:47.394Z,10.76
2023-11-04T14:04:49.514Z,10.76
2023-11-04T14:07:52.077Z,10.72
2023-11-04T14:10:58.995Z,10.85
2023-11-04T14:14:01.090Z,10.48
2023-11-04T14:17:07.195Z,10.66
2023-11-04T14:20:09.721Z,10.51
2023-11-04T14:23:11.929Z,10.67
2023-11-04T14:26:14.081Z,10.60
2023-11-04T14:29:16.144Z,10.50
2023-11-04T14:32:18.386Z,10.30
2023-11-04T14:35:24.072Z,10.34
2023-11-04T14:38:28.652Z,10.36
2023-11-04T14:41:30.764Z,10.33
2023-11-04T14:44:33.203Z,10.27
2023-11-04T14:47:35.912Z,10.26
2023-11-04T14:50:41.759Z,10.01
2023-11-04T14:53:43.949Z,10.07
2023-11-04T14:56:53.949Z,9.90
2023-11-04T14:59:56.624Z,9.72
2023-11-04T15:03:00.110Z,9.67
2023-11-04T15:06:02.748Z,9.71
2023-11-04T15:09:05.035Z,9.61
2023-11-04T15:12:09.796Z,9.49
2023-11-04T15:15:11.994Z,9.45
2023-11-04T15:18:14.284Z,9.14
2023-11-04T15:21:16.618Z,9.13
2023-11-04T15:24:18.722Z,9.06
2023-11-04T15:27:20.896Z,8.87
2023-11-04T15:30:28.250Z,8.59
2023-11-04T15:33:31.625Z,8.59
2023-11-04T15:36:33.682Z,8.52
2023-11-04T15:39:40.933Z,8.54
2023-11-04T15:51:43.459Z,8.30
2023-11-04T15:54:54.808Z,8.25
2023-11-04T15:58:02.092Z,8.34
2023-11-04T16:01:07.489Z,8.31
2023-11-04T16:04:10.210Z,8.14
2023-11-04T16:07:14.578Z,8.28
2023-11-04T16:10:17.036Z,8.06
2023-11-04T16:13:24.086Z,7.99
2023-11-04T16:16:26.549Z,8.06
2023-11-04T16:19:28.954Z,8.02
2023-11-04T16:22:36.103Z,7.89
2023-11-04T16:25:43.784Z,7.89
2023-11-04T16:28:49.606Z,7.79
2023-11-04T16:31:52.033Z,7.82
2023-11-04T16:34:59.025Z,7.82
2023-11-04T16:38:07.146Z,7.77
2023-11-04T16:41:22.501Z,7.72
2023-11-04T16:44:24.967Z,7.68
2023-11-04T16:47:27.575Z,7.79
2023-11-04T16:50:31.774Z,7.76
2023-11-04T16:53:45.849Z,7.92
2023-11-04T16:57:16.123Z,7.99
2023-11-04T17:01:40.908Z,8.09
2023-11-04T17:05:22.147Z,8.02
2023-11-04T17:08:37.111Z,7.82
2023-11-04T17:11:49.126Z,7.72
2023-11-04T17:14:51.743Z,7.66
2023-11-04T17:17:54.091Z,7.77
2023-11-04T17:20:56.475Z,7.68
2023-11-04T17:23:59.909Z,7.64
2023-11-04T17:27:02.750Z,7.50
2023-11-04T17:30:05.999Z,7.37
2023-11-04T17:33:08.298Z,7.32
2023-11-04T17:36:10.696Z,7.21
2023-11-04T17:39:13.039Z,7.09
2023-11-04T17:42:15.501Z,7.16
2023-11-04T17:45:20.266Z,6.87
2023-11-04T17:48:23.433Z,6.87
2023-11-04T17:51:25.837Z,6.92
2023-11-04T17:54:27.882Z,6.93
2023-11-04T17:57:43.829Z,6.92
2023-11-04T18:00:46.231Z,6.70
2023-11-04T18:03:48.466Z,6.55
2023-11-04T18:06:51.947Z,6.64
2023-11-04T18:09:54.172Z,6.68
2023-11-04T18:12:56.691Z,6.57
2023-11-04T18:16:00.245Z,6.57
2023-11-04T18:19:06.373Z,6.44
2023-11-04T18:22:11.239Z,6.47
2023-11-04T18:25:16.743Z,6.58
2023-11-04T18:28:20.911Z,6.35
2023-11-04T18:31:25.584Z,6.25
2023-11-04T18:34:27.890Z,6.34
2023-11-04T18:37:30.401Z,6.35
2023-11-04T18:40:35.033Z,6.27
2023-11-04T18:43:37.773Z,6.17
2023-11-04T18:46:40.293Z,6.26
2023-11-04T18:49:43.093Z,6.18
2023-11-04T18:52:47.942Z,6.18
2023-11-04T18:55:52.559Z,6.02
2023-11-04T18:58:57.836Z,6.11
2023-11-04T19:02:01.503Z,6.03
2023-11-04T19:05:09.413Z,6.04
2023-11-04T19:08:14.921Z,5.99
2023-11-04T19:11:30.436Z,6.00
2023-11-04T19:14:36.442Z,6.14
2023-11-04T19:17:54.413Z,6.04
2023-11-04T19:21:03.154Z,6.03
2023-11-04T19:24:30.213Z,5.79
2023-11-04T19:27:42.789Z,5.87
2023-11-04T19:30:49.687Z,5.69
2023-11-04T19:33:54.119Z,5.76
2023-11-04T19:36:57.575Z,5.71
2023-11-04T19:40:03.234Z,5.73
2023-11-04T19:43:07.685Z,5.66
2023-11-04T19:46:09.858Z,5.75
2023-11-04T19:49:18.416Z,5.69
2023-11-04T19:52:34.771Z,5.71
2023-11-04T19:55:40.081Z,5.65
2023-11-04T19:58:46.306Z,5.65
2023-11-04T20:01:51.157Z,5.78
2023-11-04T20:04:53.482Z,5.80
2023-11-04T20:08:11.143Z,5.77
2023-11-04T20:11:23.262Z,5.68
2023-11-04T20:14:25.410Z,5.76
2023-11-04T20:17:37.600Z,5.60
2023-11-04T20:20:41.423Z,5.62
2023-11-04T20:23:47.573Z,5.54
2023-11-04T20:26:52.375Z,5.40
2023-11-04T20:30:03.626Z,5.48
2023-11-04T20:33:07.252Z,5.48
2023-11-04T20:36:11.501Z,5.62
2023-11-04T20:39:14.167Z,5.54
2023-11-04T20:42:19.385Z,5.64
2023-11-04T20:45:29.736Z,5.56
2023-11-04T20:48:32.592Z,5.56
2023-11-04T20:51:44.724Z,5.62
2023-11-04T20:54:47.304Z,5.70
2023-11-04T20:57:52.189Z,5.72
2023-11-04T21:00:54.935Z,5.74
2023-11-04T21:04:00.067Z,5.78
2023-11-04T21:07:03.318Z,5.72
2023-11-04T21:10:08.736Z,5.75
2023-11-04T21:13:18.802Z,5.87
2023-11-04T21:16:26.969Z,5.68
2023-11-04T21:19:35.189Z,5.69
2023-11-04T21:23:02.987Z,5.81
2023-11-04T21:26:20.249Z,5.69
2023-11-04T21:29:37.088Z,5.79
2023-11-04T21:32:40.134Z,5.93
2023-11-04T21:35:42.294Z,5.93
2023-11-04T21:38:46.283Z,5.94
2023-11-04T21:41:48.487Z,5.96
2023-11-04T21:44:50.831Z,6.20
2023-11-04T21:47:57.024Z,6.14
2023-11-04T21:50:59.152Z,6.03
2023-11-04T21:54:03.731Z,6.18
2023-11-04T21:57:05.837Z,6.14
2023-11-04T22:00:08.485Z,6.16
2023-11-04T22:03:10.632Z,6.19
2023-11-04T22:06:15.151Z,6.24
2023-11-04T22:09:17.123Z,6.35
2023-11-04T22:12:19.233Z,6.36
2023-11-04T22:15:21.287Z,6.41
2023-11-04T22:18:29.094Z,6.50
2023-11-04T22:21:31.246Z,6.46
2023-11-04T22:24:33.307Z,6.53
2023-11-04T22:27:35.483Z,6.57
2023-11-04T22:30:37.542Z,6.63
2023-11-04T22:33:39.738Z,6.62
2023-11-04T22:36:43.741Z,6.80
2023-11-04T22:39:45.900Z,6.70
2023-11-04T22:42:48.613Z,6.71
2023-11-04T22:45:50.805Z,6.71
2023-11-04T22:48:53.027Z,6.81
2023-11-04T22:51:55.156Z,6.84
2023-11-04T22:54:57.141Z,6.78
2023-11-04T22:57:59.434Z,6.78
2023-11-04T23:01:02.748Z,6.91
2023-11-04T23:04:05.927Z,6.88
2023-11-04T23:07:12.880Z,6.95
2023-11-04T23:10:17.021Z,6.91
2023-11-04T23:13:20.623Z,6.97
2023-11-04T23:16:23.536Z,6.95
2023-11-04T23:19:25.712Z,7.04
2023-11-04T23:22:29.368Z,7.09
2023-11-04T23:25:31.450Z,7.11
2023-11-04T23:28:33.808Z,6.99
2023-11-04T23:31:36.103Z,7.16
2023-11-04T23:34:38.178Z,7.18
2023-11-04T23:37:40.248Z,7.11
2023-11-04T23:40:42.261Z,7.21
2023-11-04T23:43:46.709Z,7.14
2023-11-04T23:46:48.757Z,7.10
2023-11-04T23:49:50.850Z,7.33
2023-11-04T23:52:52.920Z,7.18
2023-11-04T23:55:55.100Z,7.24
2023-11-04T23:58:57.213Z,7.18
